sensor_id;sensor_type;location;lat;lon;timestamp;pressure;altitude;pressure_sealevel;temperature
68510;BMP180;55512;50.102;19.958;2023-12-20T00:01:02;98133.80;;;5.68
68510;BMP180;55512;50.102;19.958;2023-12-20T00:03:28;98124.20;;;5.60
68510;BMP180;55512;50.102;19.958;2023-12-20T00:05:53;98122.20;;;5.60
68510;BMP180;55512;50.102;19.958;2023-12-20T00:08:19;98115.80;;;5.60
68510;BMP180;55512;50.102;19.958;2023-12-20T00:10:44;98120.00;;;5.60
68510;BMP180;55512;50.102;19.958;2023-12-20T00:13:10;98122.00;;;5.58
68510;BMP180;55512;50.102;19.958;2023-12-20T00:15:36;98112.00;;;5.60
68510;BMP180;55512;50.102;19.958;2023-12-20T00:18:01;98108.60;;;5.54
68510;BMP180;55512;50.102;19.958;2023-12-20T00:20:28;98102.40;;;5.52
68510;BMP180;55512;50.102;19.958;2023-12-20T00:22:57;98102.80;;;5.56
68510;BMP180;55512;50.102;19.958;2023-12-20T00:25:25;98102.80;;;5.60
68510;BMP180;55512;50.102;19.958;2023-12-20T00:27:51;98101.40;;;5.52
68510;BMP180;55512;50.102;19.958;2023-12-20T00:30:17;98095.40;;;5.50
68510;BMP180;55512;50.102;19.958;2023-12-20T00:32:43;98095.60;;;5.50
68510;BMP180;55512;50.102;19.958;2023-12-20T00:35:15;98077.40;;;5.50
68510;BMP180;55512;50.102;19.958;2023-12-20T00:37:42;98076.20;;;5.50
68510;BMP180;55512;50.102;19.958;2023-12-20T00:40:08;98079.20;;;5.50
68510;BMP180;55512;50.102;19.958;2023-12-20T00:42:34;98076.00;;;5.52
68510;BMP180;55512;50.102;19.958;2023-12-20T00:45:00;98073.20;;;5.60
68510;BMP180;55512;50.102;19.958;2023-12-20T00:47:26;98073.00;;;5.70
68510;BMP180;55512;50.102;19.958;2023-12-20T00:49:51;98067.00;;;5.78
68510;BMP180;55512;50.102;19.958;2023-12-20T00:52:17;98070.00;;;5.80
68510;BMP180;55512;50.102;19.958;2023-12-20T00:54:44;98074.20;;;5.94
68510;BMP180;55512;50.102;19.958;2023-12-20T00:57:09;98080.20;;;6.04
68510;BMP180;55512;50.102;19.958;2023-12-20T00:59:35;98080.60;;;6.12
68510;BMP180;55512;50.102;19.958;2023-12-20T01:02:01;98080.20;;;6.20
68510;BMP180;55512;50.102;19.958;2023-12-20T01:04:26;98081.40;;;6.40
68510;BMP180;55512;50.102;19.958;2023-12-20T01:06:52;98080.00;;;6.50
68510;BMP180;55512;50.102;19.958;2023-12-20T01:09:18;98071.20;;;6.60
68510;BMP180;55512;50.102;19.958;2023-12-20T01:11:44;98073.60;;;6.60
68510;BMP180;55512;50.102;19.958;2023-12-20T01:14:11;98081.00;;;6.64
68510;BMP180;55512;50.102;19.958;2023-12-20T01:16:37;98073.00;;;6.70
68510;BMP180;55512;50.102;19.958;2023-12-20T01:19:02;98071.60;;;6.70
68510;BMP180;55512;50.102;19.958;2023-12-20T01:21:28;98063.60;;;6.70
68510;BMP180;55512;50.102;19.958;2023-12-20T01:23:53;98056.40;;;6.60
68510;BMP180;55512;50.102;19.958;2023-12-20T01:26:18;98059.60;;;6.50
68510;BMP180;55512;50.102;19.958;2023-12-20T01:28:44;98051.40;;;6.50
68510;BMP180;55512;50.102;19.958;2023-12-20T01:31:10;98046.60;;;6.40
68510;BMP180;55512;50.102;19.958;2023-12-20T01:33:35;98047.40;;;6.40
68510;BMP180;55512;50.102;19.958;2023-12-20T01:36:00;98041.80;;;6.38
68510;BMP180;55512;50.102;19.958;2023-12-20T01:38:26;98037.60;;;6.32
68510;BMP180;55512;50.102;19.958;2023-12-20T01:40:51;98026.00;;;6.32
68510;BMP180;55512;50.102;19.958;2023-12-20T01:43:17;98011.00;;;6.30
68510;BMP180;55512;50.102;19.958;2023-12-20T01:45:42;98008.20;;;6.30
68510;BMP180;55512;50.102;19.958;2023-12-20T01:48:09;98007.60;;;6.30
68510;BMP180;55512;50.102;19.958;2023-12-20T01:50:36;97992.40;;;6.30
68510;BMP180;55512;50.102;19.958;2023-12-20T01:53:04;97992.00;;;6.28
68510;BMP180;55512;50.102;19.958;2023-12-20T01:55:34;97989.20;;;6.28
68510;BMP180;55512;50.102;19.958;2023-12-20T01:58:02;97989.20;;;6.20
68510;BMP180;55512;50.102;19.958;2023-12-20T02:00:29;97987.80;;;6.20
68510;BMP180;55512;50.102;19.958;2023-12-20T02:02:55;97983.60;;;6.20
68510;BMP180;55512;50.102;19.958;2023-12-20T02:05:22;97978.20;;;6.20
68510;BMP180;55512;50.102;19.958;2023-12-20T02:07:49;97974.20;;;6.28
68510;BMP180;55512;50.102;19.958;2023-12-20T02:10:15;97973.00;;;6.30
68510;BMP180;55512;50.102;19.958;2023-12-20T02:12:41;97976.00;;;6.30
68510;BMP180;55512;50.102;19.958;2023-12-20T02:15:07;97971.00;;;6.30
68510;BMP180;55512;50.102;19.958;2023-12-20T02:17:33;97964.80;;;6.32
68510;BMP180;55512;50.102;19.958;2023-12-20T02:19:59;97962.40;;;6.40
68510;BMP180;55512;50.102;19.958;2023-12-20T02:22:24;97957.80;;;6.40
68510;BMP180;55512;50.102;19.958;2023-12-20T02:24:50;97956.20;;;6.40
68510;BMP180;55512;50.102;19.958;2023-12-20T02:27:18;97956.00;;;6.40
68510;BMP180;55512;50.102;19.958;2023-12-20T02:29:47;97960.20;;;6.40
68510;BMP180;55512;50.102;19.958;2023-12-20T02:32:13;97957.00;;;6.36
68510;BMP180;55512;50.102;19.958;2023-12-20T02:34:38;97957.40;;;6.30
68510;BMP180;55512;50.102;19.958;2023-12-20T02:37:04;97957.80;;;6.30
68510;BMP180;55512;50.102;19.958;2023-12-20T02:39:30;97958.40;;;6.30
68510;BMP180;55512;50.102;19.958;2023-12-20T02:41:56;97959.40;;;6.30
68510;BMP180;55512;50.102;19.958;2023-12-20T02:44:21;97948.20;;;6.30
68510;BMP180;55512;50.102;19.958;2023-12-20T02:46:46;97941.60;;;6.28
68510;BMP180;55512;50.102;19.958;2023-12-20T02:49:12;97946.40;;;6.20
68510;BMP180;55512;50.102;19.958;2023-12-20T02:51:37;97949.80;;;6.20
68510;BMP180;55512;50.102;19.958;2023-12-20T02:54:06;97947.60;;;6.10
68510;BMP180;55512;50.102;19.958;2023-12-20T02:56:34;97947.40;;;6.08
68510;BMP180;55512;50.102;19.958;2023-12-20T02:58:59;97954.60;;;6.02
68510;BMP180;55512;50.102;19.958;2023-12-20T03:01:25;97956.80;;;6.00
68510;BMP180;55512;50.102;19.958;2023-12-20T03:03:50;97951.60;;;6.00
68510;BMP180;55512;50.102;19.958;2023-12-20T03:06:18;97956.40;;;6.00
68510;BMP180;55512;50.102;19.958;2023-12-20T03:08:44;97954.40;;;6.00
68510;BMP180;55512;50.102;19.958;2023-12-20T03:11:09;97957.40;;;6.00
68510;BMP180;55512;50.102;19.958;2023-12-20T03:13:35;97956.00;;;6.00
68510;BMP180;55512;50.102;19.958;2023-12-20T03:16:00;97957.80;;;6.00
68510;BMP180;55512;50.102;19.958;2023-12-20T03:18:26;97951.40;;;6.00
68510;BMP180;55512;50.102;19.958;2023-12-20T03:20:53;97949.00;;;6.04
68510;BMP180;55512;50.102;19.958;2023-12-20T03:23:18;97942.60;;;6.10
68510;BMP180;55512;50.102;19.958;2023-12-20T03:25:44;97940.80;;;6.10
68510;BMP180;55512;50.102;19.958;2023-12-20T03:28:09;97943.80;;;6.16
68510;BMP180;55512;50.102;19.958;2023-12-20T03:30:35;97937.40;;;6.20
68510;BMP180;55512;50.102;19.958;2023-12-20T03:33:00;97944.40;;;6.20
68510;BMP180;55512;50.102;19.958;2023-12-20T03:35:25;97950.00;;;6.20
68510;BMP180;55512;50.102;19.958;2023-12-20T03:37:51;97951.80;;;6.30
68510;BMP180;55512;50.102;19.958;2023-12-20T03:40:16;97958.60;;;6.30
68510;BMP180;55512;50.102;19.958;2023-12-20T03:42:42;97959.20;;;6.30
68510;BMP180;55512;50.102;19.958;2023-12-20T03:45:08;97970.00;;;6.30
68510;BMP180;55512;50.102;19.958;2023-12-20T03:47:34;97961.20;;;6.30
68510;BMP180;55512;50.102;19.958;2023-12-20T03:49:59;97957.20;;;6.30
68510;BMP180;55512;50.102;19.958;2023-12-20T03:52:24;97961.00;;;6.30
68510;BMP180;55512;50.102;19.958;2023-12-20T03:54:50;97958.80;;;6.30
68510;BMP180;55512;50.102;19.958;2023-12-20T03:57:15;97959.20;;;6.30
68510;BMP180;55512;50.102;19.958;2023-12-20T03:59:40;97958.40;;;6.30
68510;BMP180;55512;50.102;19.958;2023-12-20T04:02:06;97955.00;;;6.30
68510;BMP180;55512;50.102;19.958;2023-12-20T04:04:31;97952.20;;;6.30
68510;BMP180;55512;50.102;19.958;2023-12-20T04:06:57;97949.80;;;6.30
68510;BMP180;55512;50.102;19.958;2023-12-20T04:09:22;97936.20;;;6.30
68510;BMP180;55512;50.102;19.958;2023-12-20T04:11:48;97936.20;;;6.22
68510;BMP180;55512;50.102;19.958;2023-12-20T04:14:13;97940.60;;;6.20
68510;BMP180;55512;50.102;19.958;2023-12-20T04:16:39;97937.40;;;6.20
68510;BMP180;55512;50.102;19.958;2023-12-20T04:19:05;97946.00;;;6.20
68510;BMP180;55512;50.102;19.958;2023-12-20T04:21:30;97945.80;;;6.22
68510;BMP180;55512;50.102;19.958;2023-12-20T04:23:56;97948.60;;;6.30
68510;BMP180;55512;50.102;19.958;2023-12-20T04:26:22;97945.80;;;6.28
68510;BMP180;55512;50.102;19.958;2023-12-20T04:28:47;97947.80;;;6.30
68510;BMP180;55512;50.102;19.958;2023-12-20T04:31:13;97946.60;;;6.30
68510;BMP180;55512;50.102;19.958;2023-12-20T04:33:38;97946.20;;;6.40
68510;BMP180;55512;50.102;19.958;2023-12-20T04:36:04;97951.00;;;6.42
68510;BMP180;55512;50.102;19.958;2023-12-20T04:38:29;97950.00;;;6.50
68510;BMP180;55512;50.102;19.958;2023-12-20T04:40:55;97950.00;;;6.50
68510;BMP180;55512;50.102;19.958;2023-12-20T04:43:21;97953.00;;;6.58
68510;BMP180;55512;50.102;19.958;2023-12-20T04:45:46;97960.60;;;6.60
68510;BMP180;55512;50.102;19.958;2023-12-20T04:48:12;97964.60;;;6.60
68510;BMP180;55512;50.102;19.958;2023-12-20T04:50:37;97956.00;;;6.60
68510;BMP180;55512;50.102;19.958;2023-12-20T04:53:03;97957.20;;;6.60
68510;BMP180;55512;50.102;19.958;2023-12-20T04:55:28;97965.80;;;6.60
68510;BMP180;55512;50.102;19.958;2023-12-20T04:57:54;97974.80;;;6.60
68510;BMP180;55512;50.102;19.958;2023-12-20T05:00:20;97974.60;;;6.54
68510;BMP180;55512;50.102;19.958;2023-12-20T05:02:45;97976.80;;;6.50
68510;BMP180;55512;50.102;19.958;2023-12-20T05:05:11;97970.40;;;6.50
68510;BMP180;55512;50.102;19.958;2023-12-20T05:07:36;97966.60;;;6.50
68510;BMP180;55512;50.102;19.958;2023-12-20T05:10:03;97966.80;;;6.40
68510;BMP180;55512;50.102;19.958;2023-12-20T05:12:30;97967.60;;;6.38
68510;BMP180;55512;50.102;19.958;2023-12-20T05:14:55;97960.60;;;6.30
68510;BMP180;55512;50.102;19.958;2023-12-20T05:17:21;97971.00;;;6.20
68510;BMP180;55512;50.102;19.958;2023-12-20T05:19:46;97968.40;;;6.12
68510;BMP180;55512;50.102;19.958;2023-12-20T05:22:12;97976.20;;;6.10
68510;BMP180;55512;50.102;19.958;2023-12-20T05:24:37;97974.00;;;6.00
68510;BMP180;55512;50.102;19.958;2023-12-20T05:27:03;97974.40;;;5.90
68510;BMP180;55512;50.102;19.958;2023-12-20T05:29:28;97975.00;;;5.80
68510;BMP180;55512;50.102;19.958;2023-12-20T05:31:54;97959.20;;;5.70
68510;BMP180;55512;50.102;19.958;2023-12-20T05:34:19;97951.80;;;5.60
68510;BMP180;55512;50.102;19.958;2023-12-20T05:36:45;97962.40;;;5.50
68510;BMP180;55512;50.102;19.958;2023-12-20T05:39:11;97953.20;;;5.40
68510;BMP180;55512;50.102;19.958;2023-12-20T05:41:37;97958.80;;;5.30
68510;BMP180;55512;50.102;19.958;2023-12-20T05:44:02;97955.60;;;5.20
68510;BMP180;55512;50.102;19.958;2023-12-20T05:46:28;97971.60;;;5.10
68510;BMP180;55512;50.102;19.958;2023-12-20T05:48:53;97964.80;;;5.00
68510;BMP180;55512;50.102;19.958;2023-12-20T05:51:18;97960.20;;;5.00
68510;BMP180;55512;50.102;19.958;2023-12-20T05:53:44;97961.20;;;4.90
68510;BMP180;55512;50.102;19.958;2023-12-20T05:56:10;97957.20;;;4.80
68510;BMP180;55512;50.102;19.958;2023-12-20T05:58:38;97952.00;;;4.80
68510;BMP180;55512;50.102;19.958;2023-12-20T06:01:04;97953.00;;;4.70
68510;BMP180;55512;50.102;19.958;2023-12-20T06:03:32;97953.60;;;4.70
68510;BMP180;55512;50.102;19.958;2023-12-20T06:05:57;97959.80;;;4.60
68510;BMP180;55512;50.102;19.958;2023-12-20T06:08:23;97972.00;;;4.60
68510;BMP180;55512;50.102;19.958;2023-12-20T06:10:49;97970.40;;;4.50
68510;BMP180;55512;50.102;19.958;2023-12-20T06:13:14;97974.80;;;4.50
68510;BMP180;55512;50.102;19.958;2023-12-20T06:15:40;97984.20;;;4.48
68510;BMP180;55512;50.102;19.958;2023-12-20T06:18:06;97980.20;;;4.40
68510;BMP180;55512;50.102;19.958;2023-12-20T06:20:32;97993.60;;;4.40
68510;BMP180;55512;50.102;19.958;2023-12-20T06:22:58;97986.20;;;4.32
68510;BMP180;55512;50.102;19.958;2023-12-20T06:25:24;97996.20;;;4.30
68510;BMP180;55512;50.102;19.958;2023-12-20T06:27:50;97975.80;;;4.28
68510;BMP180;55512;50.102;19.958;2023-12-20T06:30:16;97974.40;;;4.26
68510;BMP180;55512;50.102;19.958;2023-12-20T06:32:42;97974.20;;;4.20
68510;BMP180;55512;50.102;19.958;2023-12-20T06:35:08;97979.20;;;4.20
68510;BMP180;55512;50.102;19.958;2023-12-20T06:37:34;97969.60;;;4.10
68510;BMP180;55512;50.102;19.958;2023-12-20T06:40:00;97969.20;;;4.00
68510;BMP180;55512;50.102;19.958;2023-12-20T06:42:25;97978.20;;;3.96
68510;BMP180;55512;50.102;19.958;2023-12-20T06:44:51;97981.60;;;3.90
68510;BMP180;55512;50.102;19.958;2023-12-20T06:47:16;97965.60;;;3.80
68510;BMP180;55512;50.102;19.958;2023-12-20T06:49:42;97961.80;;;3.74
68510;BMP180;55512;50.102;19.958;2023-12-20T06:52:07;97974.60;;;3.70
68510;BMP180;55512;50.102;19.958;2023-12-20T06:54:33;97967.20;;;3.70
68510;BMP180;55512;50.102;19.958;2023-12-20T06:57:00;97964.80;;;3.70
68510;BMP180;55512;50.102;19.958;2023-12-20T06:59:25;97955.00;;;3.70
68510;BMP180;55512;50.102;19.958;2023-12-20T07:01:51;97964.00;;;3.70
68510;BMP180;55512;50.102;19.958;2023-12-20T07:04:17;97964.40;;;3.62
68510;BMP180;55512;50.102;19.958;2023-12-20T07:06:50;97965.60;;;3.64
68510;BMP180;55512;50.102;19.958;2023-12-20T07:09:22;97962.60;;;3.60
68510;BMP180;55512;50.102;19.958;2023-12-20T07:11:48;97970.20;;;3.60
68510;BMP180;55512;50.102;19.958;2023-12-20T07:14:14;97961.40;;;3.60
68510;BMP180;55512;50.102;19.958;2023-12-20T07:16:39;97967.20;;;3.60
68510;BMP180;55512;50.102;19.958;2023-12-20T07:19:06;97961.80;;;3.52
68510;BMP180;55512;50.102;19.958;2023-12-20T07:21:31;97966.00;;;3.50
68510;BMP180;55512;50.102;19.958;2023-12-20T07:23:57;97974.40;;;3.50
68510;BMP180;55512;50.102;19.958;2023-12-20T07:26:22;97969.20;;;3.50
68510;BMP180;55512;50.102;19.958;2023-12-20T07:28:49;97976.60;;;3.42
68510;BMP180;55512;50.102;19.958;2023-12-20T07:31:15;97967.20;;;3.40
68510;BMP180;55512;50.102;19.958;2023-12-20T07:33:41;97968.20;;;3.40
68510;BMP180;55512;50.102;19.958;2023-12-20T07:36:07;97974.80;;;3.40
68510;BMP180;55512;50.102;19.958;2023-12-20T07:38:33;97970.40;;;3.40
68510;BMP180;55512;50.102;19.958;2023-12-20T07:40:58;97973.60;;;3.40
68510;BMP180;55512;50.102;19.958;2023-12-20T07:43:24;97978.80;;;3.40
68510;BMP180;55512;50.102;19.958;2023-12-20T07:45:49;97973.40;;;3.40
68510;BMP180;55512;50.102;19.958;2023-12-20T07:48:15;97980.60;;;3.44
68510;BMP180;55512;50.102;19.958;2023-12-20T07:50:41;97977.40;;;3.44
68510;BMP180;55512;50.102;19.958;2023-12-20T07:53:07;97975.20;;;3.50
68510;BMP180;55512;50.102;19.958;2023-12-20T07:55:32;97982.80;;;3.50
68510;BMP180;55512;50.102;19.958;2023-12-20T07:57:59;97982.20;;;3.50
68510;BMP180;55512;50.102;19.958;2023-12-20T08:00:27;97979.80;;;3.60
68510;BMP180;55512;50.102;19.958;2023-12-20T08:02:52;97984.60;;;3.60
68510;BMP180;55512;50.102;19.958;2023-12-20T08:05:18;97992.00;;;3.60
68510;BMP180;55512;50.102;19.958;2023-12-20T08:07:43;97980.00;;;3.60
68510;BMP180;55512;50.102;19.958;2023-12-20T08:10:09;97984.80;;;3.60
68510;BMP180;55512;50.102;19.958;2023-12-20T08:12:34;97987.00;;;3.60
68510;BMP180;55512;50.102;19.958;2023-12-20T08:15:01;97991.40;;;3.60
68510;BMP180;55512;50.102;19.958;2023-12-20T08:17:27;97993.40;;;3.60
68510;BMP180;55512;50.102;19.958;2023-12-20T08:19:52;97992.60;;;3.50
68510;BMP180;55512;50.102;19.958;2023-12-20T08:22:17;97995.60;;;3.50
68510;BMP180;55512;50.102;19.958;2023-12-20T08:24:43;97996.80;;;3.50
68510;BMP180;55512;50.102;19.958;2023-12-20T08:27:08;97990.60;;;3.40
68510;BMP180;55512;50.102;19.958;2023-12-20T08:29:35;97984.80;;;3.40
68510;BMP180;55512;50.102;19.958;2023-12-20T08:32:01;97989.60;;;3.40
68510;BMP180;55512;50.102;19.958;2023-12-20T08:34:27;97987.40;;;3.40
68510;BMP180;55512;50.102;19.958;2023-12-20T08:36:53;97980.20;;;3.40
68510;BMP180;55512;50.102;19.958;2023-12-20T08:39:18;97982.80;;;3.38
68510;BMP180;55512;50.102;19.958;2023-12-20T08:41:44;97980.00;;;3.30
68510;BMP180;55512;50.102;19.958;2023-12-20T08:44:09;97981.60;;;3.30
68510;BMP180;55512;50.102;19.958;2023-12-20T08:46:35;97982.00;;;3.30
68510;BMP180;55512;50.102;19.958;2023-12-20T08:49:04;97988.00;;;3.20
68510;BMP180;55512;50.102;19.958;2023-12-20T08:51:30;97979.40;;;3.24
68510;BMP180;55512;50.102;19.958;2023-12-20T08:53:55;97982.00;;;3.20
68510;BMP180;55512;50.102;19.958;2023-12-20T08:56:21;97976.20;;;3.20
68510;BMP180;55512;50.102;19.958;2023-12-20T08:58:46;97978.60;;;3.30
68510;BMP180;55512;50.102;19.958;2023-12-20T09:01:13;97981.40;;;3.30
68510;BMP180;55512;50.102;19.958;2023-12-20T09:03:39;97988.60;;;3.30
68510;BMP180;55512;50.102;19.958;2023-12-20T09:06:05;97990.80;;;3.40
68510;BMP180;55512;50.102;19.958;2023-12-20T09:08:31;97990.20;;;3.40
68510;BMP180;55512;50.102;19.958;2023-12-20T09:10:57;97996.40;;;3.40
68510;BMP180;55512;50.102;19.958;2023-12-20T09:13:22;97988.40;;;3.40
68510;BMP180;55512;50.102;19.958;2023-12-20T09:15:55;97991.20;;;3.40
68510;BMP180;55512;50.102;19.958;2023-12-20T09:18:20;97983.00;;;3.40
68510;BMP180;55512;50.102;19.958;2023-12-20T09:20:46;97985.20;;;3.40
68510;BMP180;55512;50.102;19.958;2023-12-20T09:23:11;97984.80;;;3.40
68510;BMP180;55512;50.102;19.958;2023-12-20T09:25:37;97988.80;;;3.40
68510;BMP180;55512;50.102;19.958;2023-12-20T09:28:03;97981.00;;;3.40
68510;BMP180;55512;50.102;19.958;2023-12-20T09:30:28;97985.40;;;3.50
68510;BMP180;55512;50.102;19.958;2023-12-20T09:32:55;97976.80;;;3.50
68510;BMP180;55512;50.102;19.958;2023-12-20T09:35:21;97977.20;;;3.50
68510;BMP180;55512;50.102;19.958;2023-12-20T09:37:46;97977.20;;;3.48
68510;BMP180;55512;50.102;19.958;2023-12-20T09:40:13;97976.00;;;3.50
68510;BMP180;55512;50.102;19.958;2023-12-20T09:42:57;97973.00;;;3.50
68510;BMP180;55512;50.102;19.958;2023-12-20T09:45:23;97967.80;;;3.50
68510;BMP180;55512;50.102;19.958;2023-12-20T09:47:58;97969.20;;;3.54
68510;BMP180;55512;50.102;19.958;2023-12-20T09:50:24;97959.80;;;3.60
68510;BMP180;55512;50.102;19.958;2023-12-20T09:52:52;97954.00;;;3.50
68510;BMP180;55512;50.102;19.958;2023-12-20T09:55:20;97955.60;;;3.50
68510;BMP180;55512;50.102;19.958;2023-12-20T09:57:49;97952.20;;;3.50
68510;BMP180;55512;50.102;19.958;2023-12-20T10:00:15;97942.40;;;3.44
68510;BMP180;55512;50.102;19.958;2023-12-20T10:02:50;97943.80;;;3.50
68510;BMP180;55512;50.102;19.958;2023-12-20T10:05:17;97942.80;;;3.60
68510;BMP180;55512;50.102;19.958;2023-12-20T10:07:47;97940.80;;;3.60
68510;BMP180;55512;50.102;19.958;2023-12-20T10:10:14;97937.20;;;3.50
68510;BMP180;55512;50.102;19.958;2023-12-20T10:12:40;97931.40;;;3.50
68510;BMP180;55512;50.102;19.958;2023-12-20T10:15:06;97936.20;;;3.50
68510;BMP180;55512;50.102;19.958;2023-12-20T10:17:31;97937.40;;;3.46
68510;BMP180;55512;50.102;19.958;2023-12-20T10:19:58;97932.40;;;3.48
68510;BMP180;55512;50.102;19.958;2023-12-20T10:22:24;97934.40;;;3.50
68510;BMP180;55512;50.102;19.958;2023-12-20T10:24:49;97928.20;;;3.40
68510;BMP180;55512;50.102;19.958;2023-12-20T10:27:18;97931.80;;;3.44
68510;BMP180;55512;50.102;19.958;2023-12-20T10:29:44;97933.60;;;3.46
68510;BMP180;55512;50.102;19.958;2023-12-20T10:32:25;97930.60;;;3.46
68510;BMP180;55512;50.102;19.958;2023-12-20T10:34:55;97935.40;;;3.40
68510;BMP180;55512;50.102;19.958;2023-12-20T10:37:22;97930.80;;;3.40
68510;BMP180;55512;50.102;19.958;2023-12-20T10:39:50;97931.40;;;3.40
68510;BMP180;55512;50.102;19.958;2023-12-20T10:42:29;97925.00;;;3.40
68510;BMP180;55512;50.102;19.958;2023-12-20T10:44:56;97926.80;;;3.40
68510;BMP180;55512;50.102;19.958;2023-12-20T10:47:22;97934.60;;;3.40
68510;BMP180;55512;50.102;19.958;2023-12-20T10:49:52;97925.80;;;3.40
68510;BMP180;55512;50.102;19.958;2023-12-20T10:52:17;97920.60;;;3.40
68510;BMP180;55512;50.102;19.958;2023-12-20T10:54:44;97913.40;;;3.40
68510;BMP180;55512;50.102;19.958;2023-12-20T10:57:11;97918.60;;;3.46
68510;BMP180;55512;50.102;19.958;2023-12-20T10:59:37;97913.00;;;3.40
68510;BMP180;55512;50.102;19.958;2023-12-20T11:02:05;97913.80;;;3.40
68510;BMP180;55512;50.102;19.958;2023-12-20T11:04:55;97912.20;;;3.40
68510;BMP180;55512;50.102;19.958;2023-12-20T11:07:37;97918.80;;;3.40
68510;BMP180;55512;50.102;19.958;2023-12-20T11:10:23;97913.20;;;3.40
68510;BMP180;55512;50.102;19.958;2023-12-20T11:12:58;97916.40;;;3.40
68510;BMP180;55512;50.102;19.958;2023-12-20T11:15:27;97909.80;;;3.46
68510;BMP180;55512;50.102;19.958;2023-12-20T11:17:58;97909.40;;;3.50
68510;BMP180;55512;50.102;19.958;2023-12-20T11:20:35;97906.80;;;3.50
68510;BMP180;55512;50.102;19.958;2023-12-20T11:23:02;97914.40;;;3.50
68510;BMP180;55512;50.102;19.958;2023-12-20T11:25:28;97910.80;;;3.50
68510;BMP180;55512;50.102;19.958;2023-12-20T11:28:10;97906.60;;;3.60
68510;BMP180;55512;50.102;19.958;2023-12-20T11:30:46;97910.00;;;3.60
68510;BMP180;55512;50.102;19.958;2023-12-20T11:33:15;97902.20;;;3.60
68510;BMP180;55512;50.102;19.958;2023-12-20T11:35:43;97904.60;;;3.70
68510;BMP180;55512;50.102;19.958;2023-12-20T11:38:09;97900.80;;;3.70
68510;BMP180;55512;50.102;19.958;2023-12-20T11:40:36;97899.40;;;3.80
68510;BMP180;55512;50.102;19.958;2023-12-20T11:43:03;97899.80;;;3.84
68510;BMP180;55512;50.102;19.958;2023-12-20T11:45:30;97894.40;;;3.90
68510;BMP180;55512;50.102;19.958;2023-12-20T11:47:56;97894.00;;;3.90
68510;BMP180;55512;50.102;19.958;2023-12-20T11:50:23;97891.60;;;4.00
68510;BMP180;55512;50.102;19.958;2023-12-20T11:52:52;97888.40;;;4.00
68510;BMP180;55512;50.102;19.958;2023-12-20T11:55:17;97896.00;;;4.04
68510;BMP180;55512;50.102;19.958;2023-12-20T11:57:43;97892.40;;;4.00
68510;BMP180;55512;50.102;19.958;2023-12-20T12:00:14;97895.80;;;4.00
68510;BMP180;55512;50.102;19.958;2023-12-20T12:02:40;97894.20;;;4.00
68510;BMP180;55512;50.102;19.958;2023-12-20T12:05:06;97894.60;;;4.00
68510;BMP180;55512;50.102;19.958;2023-12-20T12:07:33;97894.80;;;4.00
68510;BMP180;55512;50.102;19.958;2023-12-20T12:09:58;97887.60;;;4.00
68510;BMP180;55512;50.102;19.958;2023-12-20T12:12:24;97893.80;;;3.98
68510;BMP180;55512;50.102;19.958;2023-12-20T12:14:53;97902.60;;;4.00
68510;BMP180;55512;50.102;19.958;2023-12-20T12:17:18;97891.80;;;4.00
68510;BMP180;55512;50.102;19.958;2023-12-20T12:19:44;97896.80;;;4.00
68510;BMP180;55512;50.102;19.958;2023-12-20T12:22:11;97896.80;;;4.00
68510;BMP180;55512;50.102;19.958;2023-12-20T12:24:42;97893.60;;;4.00
68510;BMP180;55512;50.102;19.958;2023-12-20T12:27:08;97894.20;;;4.00
68510;BMP180;55512;50.102;19.958;2023-12-20T12:29:35;97892.60;;;3.98
68510;BMP180;55512;50.102;19.958;2023-12-20T12:32:05;97892.60;;;3.90
68510;BMP180;55512;50.102;19.958;2023-12-20T12:34:31;97887.40;;;3.98
68510;BMP180;55512;50.102;19.958;2023-12-20T12:36:57;97889.20;;;3.90
68510;BMP180;55512;50.102;19.958;2023-12-20T12:39:24;97890.60;;;3.92
68510;BMP180;55512;50.102;19.958;2023-12-20T12:41:53;97891.60;;;3.90
68510;BMP180;55512;50.102;19.958;2023-12-20T12:44:19;97890.40;;;3.90
68510;BMP180;55512;50.102;19.958;2023-12-20T12:46:48;97893.00;;;3.90
68510;BMP180;55512;50.102;19.958;2023-12-20T12:49:16;97886.80;;;3.90
68510;BMP180;55512;50.102;19.958;2023-12-20T12:51:43;97887.20;;;3.92
68510;BMP180;55512;50.102;19.958;2023-12-20T12:54:09;97884.60;;;3.90
68510;BMP180;55512;50.102;19.958;2023-12-20T12:56:36;97886.00;;;3.90
68510;BMP180;55512;50.102;19.958;2023-12-20T12:59:02;97887.40;;;3.92
68510;BMP180;55512;50.102;19.958;2023-12-20T13:01:27;97882.00;;;4.00
68510;BMP180;55512;50.102;19.958;2023-12-20T13:03:53;97889.40;;;4.00
68510;BMP180;55512;50.102;19.958;2023-12-20T13:06:19;97886.20;;;4.00
68510;BMP180;55512;50.102;19.958;2023-12-20T13:08:45;97870.20;;;4.10
68510;BMP180;55512;50.102;19.958;2023-12-20T13:11:11;97877.60;;;4.10
68510;BMP180;55512;50.102;19.958;2023-12-20T13:13:36;97886.40;;;4.12
68510;BMP180;55512;50.102;19.958;2023-12-20T13:16:02;97886.60;;;4.10
68510;BMP180;55512;50.102;19.958;2023-12-20T13:18:27;97894.60;;;4.10
68510;BMP180;55512;50.102;19.958;2023-12-20T13:20:53;97890.20;;;4.10
68510;BMP180;55512;50.102;19.958;2023-12-20T13:23:19;97888.80;;;4.08
68510;BMP180;55512;50.102;19.958;2023-12-20T13:25:44;97892.00;;;4.10
68510;BMP180;55512;50.102;19.958;2023-12-20T13:28:13;97891.20;;;4.02
68510;BMP180;55512;50.102;19.958;2023-12-20T13:30:39;97893.60;;;4.02
68510;BMP180;55512;50.102;19.958;2023-12-20T13:33:05;97905.60;;;4.00
68510;BMP180;55512;50.102;19.958;2023-12-20T13:35:31;97905.40;;;4.00
68510;BMP180;55512;50.102;19.958;2023-12-20T13:37:58;97902.80;;;4.00
68510;BMP180;55512;50.102;19.958;2023-12-20T13:40:23;97899.20;;;4.06
68510;BMP180;55512;50.102;19.958;2023-12-20T13:42:49;97895.80;;;4.10
68510;BMP180;55512;50.102;19.958;2023-12-20T13:45:15;97895.40;;;4.10
68510;BMP180;55512;50.102;19.958;2023-12-20T13:47:41;97901.80;;;4.10
68510;BMP180;55512;50.102;19.958;2023-12-20T13:50:07;97901.00;;;4.10
68510;BMP180;55512;50.102;19.958;2023-12-20T13:52:33;97895.80;;;4.04
68510;BMP180;55512;50.102;19.958;2023-12-20T13:54:58;97896.20;;;4.00
68510;BMP180;55512;50.102;19.958;2023-12-20T13:57:24;97899.40;;;4.00
68510;BMP180;55512;50.102;19.958;2023-12-20T13:59:50;97901.40;;;4.02
68510;BMP180;55512;50.102;19.958;2023-12-20T14:02:16;97894.80;;;4.10
68510;BMP180;55512;50.102;19.958;2023-12-20T14:04:42;97906.60;;;4.04